Terminal Aerodrome Forecast
Issued by NWS Wilmington, OH

Current Version | Previous Version | Text Only | Print | Product List | Glossary Off
Versions: 1 2 3 4 5 6 7 8 9 10 11 12 13 14 15 16 17 18 19 20 21 22 23 24

000
FTUS41 KILN 182156 AAB
TAFDAY
TAF AMD
KDAY 182156Z 1822/1918 09012KT P6SM VCSH BKN025 OVC050
     FM190000 12012KT 4SM -SHRA BR OVC025
     FM190600 15007KT 5SM BR OVC025
      TEMPO 1910/1914 5SM BR OVC015
     FM191400 19012KT P6SM VCTS SCT025 BKN040CB=

USA.gov is the U.S. government's official web portal to all federal, state and local government web resources and services.